Time;durP1;ratioP1;P1;durP2;ratioP2;P2;SDS_P1;SDS_P2;PMS_P1;PMS_P2;Temp;Humidity;BMP_temperature;BMP_pressure;BME280_temperature;BME280_humidity;BME280_pressure;Samples;Min_cycle;Max_cycle;Signal;HPM_P1;HPM_P2
2021/06/24 00:00:11;;;;;;;6.47;4.30;;;;;;;14.86;76.36;102103.25;10539472;28;20055;-59
2021/06/24 00:05:14;;;;;;;15.60;6.15;;;;;;;14.91;76.38;102113.56;10538652;28;20385;-59
2021/06/24 00:10:16;;;;;;;9.52;5.30;;;;;;;14.53;77.89;102090.97;10538981;28;20051;-59
2021/06/24 00:15:18;;;;;;;9.15;4.78;;;;;;;14.85;76.91;102085.75;10538421;28;20052;-59
2021/06/24 00:20:21;;;;;;;11.10;4.97;;;;;;;14.62;76.85;102087.84;10538372;28;20051;-59
2021/06/24 00:25:23;;;;;;;10.75;4.85;;;;;;;14.64;76.23;102078.09;10538137;28;20044;-59
2021/06/24 00:30:26;;;;;;;9.43;5.00;;;;;;;14.51;74.74;102095.47;10541155;28;20047;-59
2021/06/24 00:35:28;;;;;;;9.68;5.03;;;;;;;14.62;75.88;102090.47;10545973;28;20072;-59
2021/06/24 00:40:36;;;;;;;10.43;5.45;;;;;;;14.28;75.09;102100.16;10544938;28;20044;-59
2021/06/24 00:45:39;;;;;;;9.48;5.47;;;;;;;14.66;74.48;102096.47;10545567;28;20044;-60
2021/06/24 00:50:44;;;;;;;8.35;6.05;;;;;;;14.26;75.72;102098.53;10546016;28;20044;-59
2021/06/24 00:55:47;;;;;;;9.65;5.63;;;;;;;14.59;75.44;102098.56;10545566;28;20058;-58
2021/06/24 01:00:51;;;;;;;8.63;5.82;;;;;;;14.24;75.34;102092.47;10545368;28;20047;-59
2021/06/24 01:05:53;;;;;;;14.27;6.57;;;;;;;14.14;77.32;102097.41;10544850;28;20048;-59
2021/06/24 01:10:56;;;;;;;11.85;5.80;;;;;;;14.22;76.07;102099.63;10544167;28;20051;-59
2021/06/24 01:15:58;;;;;;;13.38;6.05;;;;;;;14.33;74.66;102097.28;10543170;28;20495;-59
2021/06/24 01:21:01;;;;;;;9.88;6.22;;;;;;;14.03;75.98;102090.03;10545018;28;20050;-59
2021/06/24 01:26:04;;;;;;;9.65;5.55;;;;;;;14.18;75.44;102095.44;10543936;28;20051;-59
2021/06/24 01:31:07;;;;;;;12.30;5.82;;;;;;;14.18;75.75;102092.81;10542714;28;20411;-59
2021/06/24 01:36:10;;;;;;;9.25;5.75;;;;;;;14.07;75.78;102090.72;10543578;28;20050;-59
2021/06/24 01:41:13;;;;;;;7.90;6.07;;;;;;;14.15;75.92;102072.75;10542576;28;20399;-59
2021/06/24 01:46:16;;;;;;;15.50;6.43;;;;;;;14.08;74.81;102072.22;10543061;28;20079;-59
2021/06/24 01:51:18;;;;;;;12.70;5.93;;;;;;;14.02;75.00;102079.56;10542974;28;20079;-58
2021/06/24 01:56:21;;;;;;;7.75;5.03;;;;;;;14.13;76.48;102074.63;10542929;28;20048;-59
2021/06/24 02:01:23;;;;;;;12.60;6.38;;;;;;;13.83;77.72;102079.69;10541386;28;20044;-60
2021/06/24 02:06:26;;;;;;;21.42;6.28;;;;;;;14.30;75.68;102076.38;10542620;28;20056;-59
2021/06/24 02:11:28;;;;;;;12.05;5.93;;;;;;;14.08;75.64;102068.75;10541700;28;20052;-58
2021/06/24 02:16:37;;;;;;;10.00;6.20;;;;;;;13.94;75.79;102072.94;10538429;28;20048;-58
2021/06/24 02:21:39;;;;;;;7.57;5.60;;;;;;;14.21;76.73;102079.50;10540607;28;20052;-58
2021/06/24 02:26:52;;;;;;;10.75;6.35;;;;;;;14.01;77.92;102077.91;10539911;28;20586;-58
2021/06/24 02:31:57;;;;;;;9.45;6.25;;;;;;;13.86;77.08;102072.47;10541480;28;20058;-58
2021/06/24 02:37:01;;;;;;;7.80;6.45;;;;;;;13.82;76.44;102070.06;10540363;28;20052;-59
2021/06/24 02:42:04;;;;;;;12.50;6.38;;;;;;;13.89;76.05;102058.31;10540301;28;20127;-59
2021/06/24 02:47:07;;;;;;;9.73;5.78;;;;;;;13.82;75.95;102059.53;10541064;28;20067;-58
2021/06/24 02:52:10;;;;;;;10.70;7.32;;;;;;;13.70;76.30;102061.88;10539287;28;20430;-59
2021/06/24 02:57:14;;;;;;;10.38;6.22;;;;;;;13.68;76.81;102055.81;10538760;28;20055;-58
2021/06/24 03:02:23;;;;;;;12.95;5.65;;;;;;;13.75;77.92;102056.38;10540106;28;20048;-58
2021/06/24 03:07:25;;;;;;;7.47;6.07;;;;;;;13.59;77.57;102058.09;10540218;28;20051;-59
2021/06/24 03:12:34;;;;;;;11.95;6.18;;;;;;;13.89;76.71;102053.88;10538746;28;20040;-60
2021/06/24 03:17:44;;;;;;;10.23;6.22;;;;;;;13.69;76.99;102039.13;10538468;28;20054;-60
2021/06/24 03:22:53;;;;;;;11.35;6.97;;;;;;;13.38;76.62;102045.03;10539261;28;20058;-59
2021/06/24 03:27:59;;;;;;;8.45;7.40;;;;;;;13.67;77.78;102040.13;10537630;28;20131;-60
2021/06/24 03:33:01;;;;;;;8.25;5.78;;;;;;;13.91;76.40;102038.03;10539043;28;20048;-58
2021/06/24 03:38:13;;;;;;;13.18;6.18;;;;;;;13.62;77.10;102036.88;10538744;28;20051;-60
2021/06/24 03:43:16;;;;;;;9.85;7.22;;;;;;;13.61;78.79;102043.06;10537815;28;20562;-58
2021/06/24 03:48:31;;;;;;;13.20;7.43;;;;;;;13.61;78.10;102041.28;10522653;28;20498;-58
2021/06/24 03:53:35;;;;;;;11.82;7.38;;;;;;;13.74;78.44;102046.78;10538972;28;20062;-58
2021/06/24 03:58:37;;;;;;;14.07;7.15;;;;;;;13.42;81.54;102044.00;10537978;28;20142;-58
2021/06/24 04:03:39;;;;;;;16.38;9.32;;;;;;;13.45;80.13;102035.94;10538565;28;20052;-58
2021/06/24 04:08:42;;;;;;;16.05;9.32;;;;;;;13.22;81.71;102029.16;10547026;28;20051;-59
2021/06/24 04:13:44;;;;;;;17.35;9.25;;;;;;;13.35;81.31;102027.66;10547469;28;20067;-59
2021/06/24 04:18:46;;;;;;;13.10;9.57;;;;;;;13.45;80.22;102028.06;10546960;28;20067;-60
2021/06/24 04:23:49;;;;;;;11.23;7.97;;;;;;;13.68;80.75;102024.25;10546417;28;20055;-59
2021/06/24 04:28:51;;;;;;;14.57;10.82;;;;;;;13.60;81.84;102015.91;10546178;28;20052;-58
2021/06/24 04:33:53;;;;;;;14.23;10.07;;;;;;;13.52;81.82;102018.91;10546195;28;20048;-59
2021/06/24 04:38:56;;;;;;;10.90;9.25;;;;;;;13.58;81.06;102007.22;10546182;28;20056;-59
2021/06/24 04:43:58;;;;;;;13.68;9.07;;;;;;;13.69;80.42;102009.31;10545928;28;20044;-59
2021/06/24 04:49:00;;;;;;;13.38;9.70;;;;;;;13.52;80.73;102018.91;10545449;28;20054;-59
2021/06/24 04:54:03;;;;;;;15.32;8.88;;;;;;;13.50;80.72;102014.66;10545836;28;20046;-59
2021/06/24 04:59:05;;;;;;;13.57;10.02;;;;;;;13.55;81.58;102007.41;10545363;28;20555;-58
2021/06/24 05:04:08;;;;;;;12.90;9.88;;;;;;;13.77;80.45;102007.16;10545375;28;20055;-59
2021/06/24 05:09:10;;;;;;;13.93;10.27;;;;;;;13.56;81.97;102009.94;10544750;28;20048;-59
2021/06/24 05:14:12;;;;;;;13.82;9.60;;;;;;;13.74;81.28;102009.94;10544801;28;20078;-59
2021/06/24 05:19:15;;;;;;;14.45;10.18;;;;;;;13.82;80.10;102013.03;10543377;28;20051;-59
2021/06/24 05:24:17;;;;;;;15.70;10.57;;;;;;;13.89;81.43;102019.66;10543583;28;20047;-59
2021/06/24 05:29:19;;;;;;;14.27;9.70;;;;;;;13.76;79.74;102018.59;10543422;28;20048;-58
2021/06/24 05:34:22;;;;;;;14.18;10.55;;;;;;;13.82;80.08;102020.06;10544022;28;20054;-60
2021/06/24 05:39:24;;;;;;;15.70;11.38;;;;;;;13.84;81.48;102026.97;10544040;28;20056;-59
2021/06/24 05:44:27;;;;;;;14.82;12.20;;;;;;;13.72;81.64;102019.69;10543399;28;20070;-59
2021/06/24 05:49:29;;;;;;;14.73;10.68;;;;;;;13.91;80.88;102020.44;10543205;28;20488;-58
2021/06/24 05:54:32;;;;;;;15.30;10.05;;;;;;;14.23;78.82;102015.25;10543080;28;20432;-59
2021/06/24 05:59:34;;;;;;;14.68;9.10;;;;;;;14.21;78.56;102011.84;10543075;28;20059;-59
2021/06/24 06:04:37;;;;;;;19.13;10.45;;;;;;;14.00;80.86;102016.47;10542595;28;20059;-58
2021/06/24 06:09:39;;;;;;;15.07;9.45;;;;;;;14.23;78.18;102017.88;10542353;28;20476;-59
2021/06/24 06:14:41;;;;;;;15.52;10.48;;;;;;;14.12;78.72;102009.69;10542193;28;20048;-59
2021/06/24 06:19:44;;;;;;;19.30;10.70;;;;;;;13.74;79.97;102009.94;10541789;28;20491;-58
2021/06/24 06:24:46;;;;;;;17.55;12.55;;;;;;;14.11;81.31;102023.81;10541981;28;20491;-58
2021/06/24 06:29:48;;;;;;;15.38;9.70;;;;;;;14.34;78.57;102013.81;10541525;28;20067;-58
2021/06/24 06:34:51;;;;;;;15.95;10.55;;;;;;;14.20;78.67;102009.31;10541575;28;20059;-58
2021/06/24 06:39:54;;;;;;;15.45;11.30;;;;;;;14.33;79.92;101996.34;10541196;28;20051;-58
2021/06/24 06:44:56;;;;;;;15.02;9.70;;;;;;;14.38;78.89;101997.78;10541117;28;20063;-57
2021/06/24 06:49:58;;;;;;;18.33;10.60;;;;;;;14.21;79.08;101998.69;10540506;28;20055;-57
2021/06/24 06:55:01;;;;;;;15.05;9.43;;;;;;;14.49;77.01;101989.28;10540604;28;20407;-58
2021/06/24 07:00:08;;;;;;;13.15;10.43;;;;;;;14.63;77.70;101996.47;10540692;28;20048;-57
2021/06/24 07:05:11;;;;;;;15.63;9.30;;;;;;;15.07;75.63;101990.47;10540429;28;20048;-58
2021/06/24 07:10:14;;;;;;;12.15;10.95;;;;;;;15.11;77.19;101994.59;10540234;28;20040;-58
2021/06/24 07:15:17;;;;;;;11.27;9.27;;;;;;;14.84;76.47;102003.19;10540192;28;20052;-58
2021/06/24 07:20:19;;;;;;;15.50;9.30;;;;;;;14.93;76.76;101993.91;10539922;28;20058;-58
2021/06/24 07:25:23;;;;;;;13.07;10.38;;;;;;;14.79;77.47;102001.72;10539680;28;20048;-58
2021/06/24 07:30:26;;;;;;;11.73;9.02;;;;;;;14.83;76.77;101998.00;10539613;28;20097;-58
2021/06/24 07:35:28;;;;;;;14.07;9.82;;;;;;;14.93;76.13;101993.91;10538265;28;20047;-58
2021/06/24 07:40:32;;;;;;;11.90;9.25;;;;;;;15.06;76.00;101999.31;10538413;28;20505;-59
2021/06/24 07:45:38;;;;;;;12.52;8.60;;;;;;;15.15;78.28;102009.34;10539358;28;20060;-58
2021/06/24 07:50:41;;;;;;;15.07;9.20;;;;;;;14.71;76.13;102002.16;10539665;28;20052;-58
2021/06/24 07:55:44;;;;;;;19.98;9.35;;;;;;;15.05;74.68;102006.38;10538992;28;20044;-58
2021/06/24 08:00:46;;;;;;;12.32;7.65;;;;;;;14.99;75.83;102003.22;10539627;28;20054;-58
2021/06/24 08:06:02;;;;;;;15.20;7.85;;;;;;;15.42;73.30;102001.59;10538907;28;20044;-58
2021/06/24 08:11:05;;;;;;;11.82;7.20;;;;;;;15.18;75.06;101997.75;10538980;28;20048;-58
2021/06/24 08:16:07;;;;;;;9.50;7.25;;;;;;;15.15;75.58;102000.59;10538321;28;20044;-59
2021/06/24 08:21:10;;;;;;;12.27;6.32;;;;;;;14.80;73.93;102003.44;10538616;28;20074;-59
2021/06/24 08:26:12;;;;;;;9.70;6.13;;;;;;;14.70;73.54;102000.47;10538010;28;20044;-59
2021/06/24 08:31:15;;;;;;;10.18;5.97;;;;;;;15.09;73.46;102003.56;10538097;28;20056;-58
2021/06/24 08:36:19;;;;;;;8.13;6.95;;;;;;;15.36;75.00;101999.31;10538136;28;20407;-58
2021/06/24 08:41:25;;;;;;;7.60;5.70;;;;;;;15.11;72.48;102009.59;10538087;28;20048;-58
2021/06/24 08:46:28;;;;;;;7.53;6.30;;;;;;;14.67;72.44;102012.00;10538168;28;20052;-58
2021/06/24 08:51:31;;;;;;;9.65;5.82;;;;;;;14.95;73.70;102013.09;10540809;28;20052;-58
2021/06/24 08:56:34;;;;;;;8.82;5.53;;;;;;;15.10;72.24;102015.81;10545194;28;20044;-58
2021/06/24 09:01:49;;;;;;;8.75;5.72;;;;;;;15.20;73.37;102017.00;10543774;28;20505;-58
2021/06/24 09:06:53;;;;;;;9.50;6.80;;;;;;;14.97;73.19;102015.66;10544697;28;20040;-59
2021/06/24 09:12:04;;;;;;;7.68;6.07;;;;;;;15.04;71.96;102017.00;10544961;28;20040;-58
2021/06/24 09:17:07;;;;;;;7.75;6.38;;;;;;;15.31;72.06;102019.84;10544560;28;20063;-58
2021/06/24 09:22:13;;;;;;;7.32;6.53;;;;;;;15.14;73.86;102019.97;10543673;28;20044;-58
2021/06/24 09:27:19;;;;;;;9.45;6.45;;;;;;;15.23;71.91;102025.59;10544000;28;20055;-58
2021/06/24 09:32:40;;;;;;;8.77;7.32;;;;;;;15.28;72.78;102025.31;10544168;28;20044;-58
2021/06/24 09:38:06;;;;;;;10.50;7.43;;;;;;;15.40;73.07;102029.88;10544072;28;20055;-59
2021/06/24 09:43:26;;;;;;;9.07;6.80;;;;;;;15.55;73.28;102030.78;10543641;28;20280;-58
2021/06/24 09:48:42;;;;;;;10.95;7.85;;;;;;;15.18;75.01;102019.72;10543436;28;20048;-58
2021/06/24 09:53:51;;;;;;;12.52;7.70;;;;;;;15.83;73.08;102020.38;10542820;28;20048;-59
2021/06/24 09:58:56;;;;;;;8.77;7.13;;;;;;;15.87;70.30;102021.88;10542626;28;20137;-59
2021/06/24 10:04:00;;;;;;;8.32;7.55;;;;;;;15.87;73.41;102025.41;10542189;28;20052;-59
2021/06/24 10:09:02;;;;;;;9.65;8.07;;;;;;;15.88;72.08;102015.69;10542026;28;20046;-58
2021/06/24 10:14:06;;;;;;;9.82;7.28;;;;;;;15.58;71.37;102014.75;10542217;28;20508;-59
2021/06/24 10:19:08;;;;;;;13.43;7.63;;;;;;;16.05;71.85;102019.94;10541853;28;20052;-59
2021/06/24 10:24:13;;;;;;;11.48;6.88;;;;;;;16.45;69.34;102020.09;10541942;28;20505;-59
2021/06/24 10:29:18;;;;;;;13.52;7.95;;;;;;;16.31;70.12;102019.19;10540448;28;20067;-58
2021/06/24 10:34:21;;;;;;;9.73;7.45;;;;;;;16.37;67.87;102025.03;10541523;28;20044;-59
2021/06/24 10:39:34;;;;;;;8.32;6.47;;;;;;;16.58;69.47;102014.91;10541311;28;20044;-59
2021/06/24 10:44:45;;;;;;;11.13;7.32;;;;;;;16.82;66.90;102009.81;10540978;28;20055;-59
2021/06/24 10:49:48;;;;;;;8.45;6.80;;;;;;;17.11;66.93;102005.28;10540650;28;20056;-59
2021/06/24 10:54:50;;;;;;;9.05;6.72;;;;;;;16.96;69.41;102003.66;10540596;28;20487;-59
2021/06/24 10:59:53;;;;;;;9.05;7.05;;;;;;;17.48;65.62;101997.53;10540375;28;20052;-60
2021/06/24 11:04:55;;;;;;;7.68;6.85;;;;;;;17.37;68.30;102000.94;10539378;28;20048;-59
2021/06/24 11:10:19;;;;;;;17.63;8.07;;;;;;;17.38;65.98;101986.75;10540237;28;20048;-59
2021/06/24 11:15:46;;;;;;;8.20;7.35;;;;;;;17.45;63.84;101990.69;10538262;28;20046;-59
2021/06/24 11:20:48;;;;;;;14.65;8.30;;;;;;;17.77;67.06;101987.63;10539715;28;20048;-59
2021/06/24 11:26:08;;;;;;;9.32;7.32;;;;;;;17.96;65.77;101989.88;10539611;28;20044;-59
2021/06/24 11:31:12;;;;;;;10.20;8.15;;;;;;;17.91;63.17;101991.16;10540131;28;20044;-59
2021/06/24 11:36:19;;;;;;;9.27;8.00;;;;;;;17.71;63.63;101992.50;10539252;28;20381;-59
2021/06/24 11:41:23;;;;;;;8.60;7.20;;;;;;;17.96;65.21;101989.88;10539412;28;20048;-59
2021/06/24 11:46:29;;;;;;;9.38;8.30;;;;;;;18.49;64.72;101983.50;10539296;28;20070;-58
2021/06/24 12:07:41;;;;;;;10.25;8.85;;;;;;;17.88;65.74;101988.72;10538182;28;20061;-59
2021/06/24 12:12:43;;;;;;;12.07;8.85;;;;;;;18.10;66.27;101982.75;10538790;28;20051;-59
2021/06/24 12:17:46;;;;;;;13.43;9.40;;;;;;;17.42;64.13;101990.03;10538748;28;20098;-59
2021/06/24 12:22:58;;;;;;;12.88;9.32;;;;;;;17.86;65.10;101986.13;10537550;28;20063;-59
2021/06/24 12:28:05;;;;;;;9.70;8.68;;;;;;;18.63;64.10;101979.88;10542742;28;20047;-58
2021/06/24 12:33:12;;;;;;;8.82;6.63;;;;;;;19.08;62.50;101977.44;10546492;28;20048;-58
2021/06/24 12:38:18;;;;;;;7.40;6.47;;;;;;;19.31;63.76;101979.22;10546059;28;20126;-59
2021/06/24 12:43:23;;;;;;;11.25;7.95;;;;;;;18.00;60.26;101969.31;10546093;28;20051;-58
2021/06/24 12:48:26;;;;;;;10.35;7.15;;;;;;;18.43;60.24;101966.25;10545889;28;20040;-58
2021/06/24 12:53:30;;;;;;;10.93;6.95;;;;;;;18.69;64.24;101963.50;10545952;28;20056;-59
2021/06/24 12:58:34;;;;;;;9.05;7.82;;;;;;;18.61;61.90;101966.72;10545319;28;20408;-59
2021/06/24 13:03:38;;;;;;;13.55;7.43;;;;;;;18.66;63.97;101961.06;10544942;28;20454;-59
2021/06/24 13:08:50;;;;;;;11.68;7.47;;;;;;;18.45;64.28;101952.88;10544735;28;20085;-59
2021/06/24 13:13:55;;;;;;;11.48;8.85;;;;;;;18.47;63.26;101954.44;10544869;28;20080;-59
2021/06/24 13:19:04;;;;;;;10.13;7.82;;;;;;;18.98;62.21;101953.44;10544690;28;20549;-59
2021/06/24 13:24:10;;;;;;;14.57;9.02;;;;;;;18.78;63.92;101954.00;10544354;28;20052;-59
2021/06/24 13:29:23;;;;;;;10.68;7.88;;;;;;;18.80;64.50;101957.41;10544426;28;20059;-59
2021/06/24 13:34:29;;;;;;;10.65;8.13;;;;;;;18.72;63.63;101964.13;10543870;28;20381;-59
2021/06/24 13:39:33;;;;;;;9.27;8.13;;;;;;;18.85;63.62;101953.47;10542734;28;20051;-59
2021/06/24 13:44:35;;;;;;;10.50;8.32;;;;;;;18.99;61.84;101957.75;10542265;28;20048;-59
2021/06/24 13:49:38;;;;;;;14.50;8.63;;;;;;;19.08;62.17;101956.22;10542996;28;20518;-59
2021/06/24 13:54:40;;;;;;;9.25;8.27;;;;;;;18.57;62.84;101954.63;10542037;28;20395;-59
2021/06/24 13:59:42;;;;;;;9.88;8.07;;;;;;;18.63;64.23;101956.84;10543084;28;20067;-59
2021/06/24 14:04:45;;;;;;;12.18;8.18;;;;;;;18.71;63.95;101949.19;10541704;28;20060;-59
2021/06/24 14:09:47;;;;;;;10.05;9.05;;;;;;;18.84;63.27;101948.28;10542732;28;20060;-59
2021/06/24 14:14:50;;;;;;;8.13;7.43;;;;;;;18.75;64.79;101947.13;10542298;28;20044;-59
2021/06/24 14:19:52;;;;;;;11.25;8.60;;;;;;;18.45;63.14;101937.81;10541826;28;20048;-59
2021/06/24 14:24:55;;;;;;;9.73;8.65;;;;;;;18.76;63.99;101935.56;10542125;28;20055;-59
2021/06/24 14:29:57;;;;;;;12.93;9.07;;;;;;;18.54;65.07;101934.50;10541845;28;20060;-59
2021/06/24 14:34:59;;;;;;;9.18;8.25;;;;;;;18.71;65.81;101943.88;10541979;28;20040;-59
2021/06/24 14:40:02;;;;;;;12.60;8.88;;;;;;;19.14;63.55;101933.69;10523423;28;20058;-59
2021/06/24 14:45:05;;;;;;;10.23;9.23;;;;;;;19.24;64.26;101943.47;10541054;28;20506;-59
2021/06/24 14:50:08;;;;;;;11.40;8.65;;;;;;;19.35;62.60;101931.19;10540458;28;20059;-59
2021/06/24 14:55:11;;;;;;;11.25;9.50;;;;;;;18.83;62.93;101926.22;10540916;28;20051;-59
2021/06/24 15:00:15;;;;;;;14.77;9.95;;;;;;;19.03;62.58;101916.78;10540613;28;20492;-59
2021/06/24 15:05:18;;;;;;;11.65;8.95;;;;;;;19.33;62.77;101918.03;10540473;28;20438;-59
2021/06/24 15:10:21;;;;;;;11.80;8.60;;;;;;;19.34;63.44;101917.06;10539964;28;20487;-59
2021/06/24 15:15:23;;;;;;;12.68;9.43;;;;;;;19.37;62.79;101910.69;10538962;28;20040;-60
2021/06/24 15:20:27;;;;;;;9.85;8.93;;;;;;;19.55;62.65;101896.00;10540591;28;20048;-59
2021/06/24 15:25:30;;;;;;;9.27;8.35;;;;;;;19.86;62.67;101893.59;10539193;28;20071;-59
2021/06/24 15:30:33;;;;;;;12.68;10.38;;;;;;;19.60;60.84;101882.31;10539399;28;20456;-59
2021/06/24 15:35:37;;;;;;;14.55;10.40;;;;;;;19.82;62.57;101887.69;10539253;28;20051;-59
2021/06/24 15:40:39;;;;;;;11.90;9.88;;;;;;;19.88;63.14;101886.34;10538939;28;20394;-59
2021/06/24 15:45:42;;;;;;;12.57;10.85;;;;;;;19.60;61.28;101877.88;10537333;28;20047;-59
2021/06/24 15:50:44;;;;;;;12.27;10.60;;;;;;;20.13;61.40;101874.56;10538591;28;20075;-59
2021/06/24 15:55:51;;;;;;;16.20;10.23;;;;;;;20.20;60.93;101874.91;10539236;28;20044;-59
2021/06/24 16:00:54;;;;;;;12.85;10.30;;;;;;;20.40;58.96;101865.31;10540881;28;20055;-59
2021/06/24 16:05:57;;;;;;;9.52;8.55;;;;;;;21.39;58.56;101871.22;10547415;28;20048;-60
2021/06/24 16:10:59;;;;;;;11.43;8.85;;;;;;;21.40;58.19;101872.91;10547349;28;20044;-59
2021/06/24 16:16:02;;;;;;;12.15;10.98;;;;;;;19.93;59.39;101870.03;10546427;28;20403;-59
2021/06/24 16:21:06;;;;;;;11.70;10.50;;;;;;;19.76;60.16;101858.94;10547275;28;20087;-59
2021/06/24 16:26:08;;;;;;;12.40;9.27;;;;;;;20.41;59.60;101854.56;10546670;28;20079;-60
2021/06/24 16:31:10;;;;;;;17.17;11.20;;;;;;;20.31;59.76;101855.41;10545051;28;20506;-59
2021/06/24 16:36:13;;;;;;;16.40;11.73;;;;;;;19.43;60.66;101850.00;10546796;28;20044;-59
2021/06/24 16:41:16;;;;;;;12.25;11.02;;;;;;;19.69;61.66;101852.38;10546065;28;20176;-59
2021/06/24 16:46:18;;;;;;;14.63;11.88;;;;;;;19.51;60.29;101854.69;10546002;28;20047;-59
2021/06/24 16:51:21;;;;;;;14.25;11.13;;;;;;;19.72;62.76;101848.63;10545455;28;20101;-59
2021/06/24 16:56:40;;;;;;;15.68;12.82;;;;;;;20.01;58.94;101841.03;10545090;28;20442;-60
2021/06/24 17:01:42;;;;;;;12.77;11.63;;;;;;;19.98;60.48;101841.25;10545449;28;20052;-60
2021/06/24 17:06:44;;;;;;;11.75;10.55;;;;;;;20.27;60.19;101840.69;10544581;28;20044;-60
2021/06/24 17:11:47;;;;;;;15.43;12.20;;;;;;;20.33;59.42;101838.38;10545092;28;20054;-60
2021/06/24 17:16:49;;;;;;;12.57;11.27;;;;;;;19.79;62.02;101832.13;10544286;28;20051;-60
2021/06/24 17:21:52;;;;;;;17.30;13.73;;;;;;;20.00;59.92;101834.00;10544467;28;20044;-60
2021/06/24 17:26:54;;;;;;;18.05;13.90;;;;;;;19.70;57.70;101835.47;10544291;28;20074;-60
2021/06/24 17:31:56;;;;;;;18.85;14.18;;;;;;;19.50;59.25;101839.69;10544394;28;20048;-60
2021/06/24 17:36:59;;;;;;;14.68;13.27;;;;;;;19.42;60.43;101844.78;10543868;28;20487;-60
2021/06/24 17:42:03;;;;;;;14.05;12.65;;;;;;;19.12;63.82;101836.44;10543941;28;20412;-60
2021/06/24 17:47:05;;;;;;;12.95;10.80;;;;;;;19.33;63.00;101830.41;10543280;28;20403;-60
2021/06/24 17:52:08;;;;;;;12.88;11.00;;;;;;;19.02;63.31;101827.50;10542383;28;20060;-60
2021/06/24 17:57:10;;;;;;;15.40;11.43;;;;;;;18.88;63.79;101836.50;10525252;28;20044;-59
2021/06/24 18:02:13;;;;;;;12.90;11.60;;;;;;;18.73;62.57;101832.34;10542630;28;20483;-59
2021/06/24 18:07:15;;;;;;;12.55;10.10;;;;;;;18.97;64.59;101842.09;10541194;28;20079;-59
2021/06/24 18:12:17;;;;;;;12.25;10.98;;;;;;;18.88;63.71;101843.63;10541194;28;20423;-59
2021/06/24 18:17:20;;;;;;;15.77;11.85;;;;;;;18.74;62.29;101842.84;10542461;28;20080;-59
2021/06/24 18:22:23;;;;;;;14.43;11.88;;;;;;;18.65;62.86;101840.03;10542304;28;20058;-59
2021/06/24 18:27:25;;;;;;;13.32;11.48;;;;;;;18.60;63.14;101831.56;10541596;28;20054;-59
2021/06/24 18:32:28;;;;;;;12.23;10.57;;;;;;;18.33;62.81;101835.31;10541894;28;20059;-59
2021/06/24 18:37:30;;;;;;;12.27;9.55;;;;;;;18.45;63.07;101826.44;10541491;28;20105;-59
2021/06/24 18:42:33;;;;;;;10.07;8.93;;;;;;;18.40;65.66;101830.41;10541587;28;20055;-59
2021/06/24 18:47:37;;;;;;;9.55;8.05;;;;;;;18.43;65.36;101835.50;10540959;28;20044;-59
2021/06/24 18:52:40;;;;;;;9.70;7.60;;;;;;;18.27;67.91;101836.59;10539670;28;20081;-59
2021/06/24 18:57:42;;;;;;;10.75;7.32;;;;;;;18.13;67.94;101834.13;10539549;28;20408;-59
2021/06/24 19:02:45;;;;;;;9.02;7.60;;;;;;;18.15;70.81;101842.81;10540635;28;20407;-59
2021/06/24 19:07:47;;;;;;;8.02;7.20;;;;;;;17.89;70.11;101832.31;10540645;28;20399;-59
2021/06/24 19:12:50;;;;;;;8.32;7.55;;;;;;;17.82;69.63;101837.16;10540096;28;20059;-59
2021/06/24 19:17:53;;;;;;;8.88;7.10;;;;;;;17.82;70.79;101821.28;10539934;28;20071;-59
2021/06/24 19:22:55;;;;;;;7.43;6.55;;;;;;;17.59;71.44;101830.00;10539962;28;20054;-59
2021/06/24 19:27:57;;;;;;;8.15;6.28;;;;;;;17.51;71.86;101833.19;10539342;28;20395;-59
2021/06/24 19:33:00;;;;;;;12.55;7.68;;;;;;;17.45;71.76;101836.28;10539232;28;20051;-59
2021/06/24 19:38:02;;;;;;;9.75;7.00;;;;;;;17.23;73.58;101831.63;10538028;28;20055;-60
2021/06/24 19:43:05;;;;;;;11.05;6.85;;;;;;;17.18;73.55;101837.25;10538844;28;20407;-60
2021/06/24 19:48:07;;;;;;;9.88;7.30;;;;;;;17.12;74.08;101835.03;10538679;28;20040;-59
2021/06/24 19:53:09;;;;;;;7.78;7.03;;;;;;;16.97;74.28;101838.72;10538608;28;20048;-60
2021/06/24 19:58:12;;;;;;;9.27;6.88;;;;;;;16.77;74.91;101838.22;10538461;28;20040;-59
2021/06/24 20:03:15;;;;;;;7.18;6.50;;;;;;;16.79;74.96;101846.91;10537304;28;20040;-60
2021/06/24 20:08:17;;;;;;;9.45;7.03;;;;;;;16.60;75.60;101847.28;10538352;28;20050;-60
2021/06/24 20:13:20;;;;;;;8.02;7.18;;;;;;;16.47;75.33;101849.88;10538579;28;20040;-60
2021/06/24 20:18:22;;;;;;;11.45;8.60;;;;;;;16.37;75.51;101858.53;10536587;28;20047;-60
2021/06/24 20:23:34;;;;;;;;;;;;;;;16.36;74.92;101868.25;10538257;28;20179;-60
2021/06/24 20:28:36;;;;;;;13.52;8.65;;;;;;;16.42;76.40;101872.28;10537689;28;20279;-60
2021/06/24 20:33:39;;;;;;;15.25;9.23;;;;;;;16.38;76.26;101862.88;10536133;28;20048;-60
2021/06/24 20:38:43;;;;;;;13.52;8.00;;;;;;;16.38;76.34;101865.50;10537519;28;20126;-60
2021/06/24 20:43:45;;;;;;;9.82;8.90;;;;;;;16.26;76.80;101868.00;10537770;28;20044;-60
2021/06/24 20:48:47;;;;;;;13.13;9.48;;;;;;;16.26;75.82;101873.28;10542263;28;20044;-60
2021/06/24 20:53:50;;;;;;;11.88;10.63;;;;;;;16.29;74.87;101866.94;10545331;28;20060;-59
2021/06/24 20:58:52;;;;;;;17.77;14.07;;;;;;;16.25;72.72;101870.72;10544660;28;20444;-59
2021/06/24 21:03:55;;;;;;;16.05;11.75;;;;;;;16.34;70.56;101872.78;10544526;28;20048;-59
2021/06/24 21:08:57;;;;;;;13.88;10.13;;;;;;;16.51;71.17;101883.09;10544653;28;20051;-59
2021/06/24 21:13:59;;;;;;;10.27;9.23;;;;;;;16.42;70.29;101875.75;10543576;28;20472;-59
2021/06/24 21:19:02;;;;;;;11.70;9.15;;;;;;;16.41;69.65;101887.31;10545450;28;20048;-59
2021/06/24 21:24:04;;;;;;;10.57;7.35;;;;;;;16.34;69.17;101886.00;10544154;28;20062;-59
2021/06/24 21:29:07;;;;;;;6.50;5.93;;;;;;;16.25;67.34;101889.22;10543560;28;20051;-59
2021/06/24 21:34:09;;;;;;;7.88;7.07;;;;;;;16.05;69.48;101891.34;10543431;28;20051;-59
2021/06/24 21:39:12;;;;;;;9.55;6.55;;;;;;;16.13;68.79;101889.06;10542266;28;20047;-59
2021/06/24 21:44:14;;;;;;;13.05;6.93;;;;;;;16.01;69.21;101884.56;10541834;28;20044;-59
2021/06/24 21:49:17;;;;;;;5.22;4.70;;;;;;;15.93;68.30;101878.91;10542798;28;20044;-59
2021/06/24 21:54:19;;;;;;;6.35;5.57;;;;;;;15.97;69.33;101880.44;10542974;28;20487;-59
2021/06/24 21:59:21;;;;;;;7.68;5.47;;;;;;;15.73;69.14;101877.47;10540373;28;20051;-59
2021/06/24 22:04:24;;;;;;;8.02;5.90;;;;;;;15.24;71.11;101876.88;10541313;28;20056;-59
2021/06/24 22:09:26;;;;;;;8.23;6.68;;;;;;;15.50;71.29;101874.47;10541913;28;20044;-59
2021/06/24 22:14:28;;;;;;;8.98;5.25;;;;;;;15.31;71.03;101869.44;10541900;28;20044;-59
2021/06/24 22:19:30;;;;;;;5.45;4.95;;;;;;;15.28;72.44;101879.34;10541923;28;20077;-59
2021/06/24 22:24:33;;;;;;;9.90;5.85;;;;;;;15.13;72.81;101874.06;10541397;28;20044;-59
2021/06/24 22:29:35;;;;;;;6.20;5.05;;;;;;;15.14;72.69;101874.91;10541562;28;20059;-59
2021/06/24 22:34:38;;;;;;;7.38;5.40;;;;;;;14.90;72.62;101874.56;10541282;28;20562;-59
2021/06/24 22:39:40;;;;;;;7.47;5.60;;;;;;;14.86;73.41;101879.16;10539942;28;20048;-59
2021/06/24 22:44:42;;;;;;;10.15;5.70;;;;;;;14.62;73.95;101873.53;10540792;28;20052;-59
2021/06/24 22:49:44;;;;;;;6.72;5.78;;;;;;;14.35;76.66;101876.75;10540287;28;20055;-59
2021/06/24 22:54:47;;;;;;;11.23;6.15;;;;;;;14.09;77.77;101876.41;10539786;28;20048;-59
2021/06/24 22:59:49;;;;;;;7.18;6.03;;;;;;;13.94;77.92;101877.25;10538872;28;20059;-59
2021/06/24 23:04:51;;;;;;;9.55;5.65;;;;;;;13.97;78.22;101882.38;10539700;28;20051;-59
2021/06/24 23:09:54;;;;;;;8.10;6.50;;;;;;;13.77;78.18;101882.56;10539741;28;20059;-59
2021/06/24 23:14:56;;;;;;;7.00;6.15;;;;;;;13.49;80.22;101879.63;10539860;28;20044;-59
2021/06/24 23:19:58;;;;;;;6.53;5.63;;;;;;;13.51;79.74;101880.38;10540076;28;20058;-59